URKK 090930Z 05008MPS CAVOK M07/M11 Q1036 R05R/850345 NOSIG RMK QFE774
QNH:(hPa/inHg/mmHg)1036 / 30.59 / 777
QFE:(hPa/inHg/mmHg)1032 / 30.46 / 774
Temperature-7
Dew Point-11
Visibility> 10000
WeatherCAVOK
Cloud Cover
Transition Altitude4000 ft.
Transition LevelFL50
SQUAWK